Sparta, VA (22552)

3:15 PM EDT on August 29, 2014 (GMT -0400)
McQ Farm | Change Station
CLOSE
Current Station
Personal Weather Station
Location: Bowling Green, VA
Elevation: 184 ft
Nearby Weather Stations

Elev 184 ft 37.99 °N, 77.25 °W | Updated 20 seconds ago

Clear
Clear
83.9 °F
Feels Like 84 °F
N
0.0
Wind Variable Wind from SSE
Gusts 1.0 mph

Today
High -- | Low -- °F
--% Chance of Precip.
Yesterday
High -- | Low -- °F
Precip. -- in
6:36 AM 7:42 PM
Waxing Crescent, 16% visible
Pressure 30.16 in
Visibility 10.0 miles
Clouds Clear
Heat Index 84 °F
Dew Point 62 °F
Humidity 47%
Rainfall 0.00 in
Snow Depth Not available.
UV 4.0 out of 12
Pollen 9.70 out of 12
Air Quality Not available.
Flu Activity Not available.
METAR KXSA 291855Z AUTO 06004KT 10SM CLR 28/10 A3016 RMK AO2 T02800098

More Conditions Fewer Conditions

Pressure 30.16 in
Visibility 10.0 miles
Clouds Clear
Heat Index 84 °F
Dew Point 62 °F
Humidity 47%
Rainfall 0.00 in
Snow Depth Not available.
UV 4.0 out of 12
Pollen 9.70 out of 12
Air Quality Not available.
Flu Activity Not available.
METAR KXSA 291855Z AUTO 06004KT 10SM CLR 28/10 A3016 RMK AO2 T02800098

More Conditions Fewer Conditions

10-Day Weather Forecast

Almanac

Astronomy

Aug. 29, 2014 Rise Set
Actual Time 6:36 AM EDT 7:42 PM EDT
Civil Twilight 6:09 AM EDT 8:09 PM EDT
Nautical Twilight 5:36 AM EDT 8:42 PM EDT
Astronomical Twilight 5:03 AM EDT 9:15 PM EDT
Moon 10:19 AM EDT 9:44 PM EDT
Length of Visible Light 14h 00m
Length of Day
13h 06m
Tomorrow will be 2m 20s shorter.
Waxing Crescent, 16% of the Moon is Illuminated
Today
Waxing Crescent
Sep 2
First Quarter
Sep 8
Full
Sep 15
Last Quarter
Sep 24
New

Today's Extremes

State Highs State Lows

Community

WunderPhotos

Upload Photos

1,748,314 photos uploaded!

Nearby

Snow Depth

Station Depth Elevation
No new snow has been reported.

Earthquake Activity

City Distance Mag. Time & Date
No recent earthquake activity has been reported nearby.
Minimum magnitude displayed is 2.5.

Coastal Water Temperatures

Place Temperature
Washington, DC 79.0 °F
Lewisetta, VA 78.1 °F
Solomons Island, MD 81.0 °F

Nearby Weather Stations